createdAt,value
2018-07-23T00:00:16.156Z,100009.92
2018-07-23T00:05:19.846Z,100008.22
2018-07-23T00:10:24.132Z,100011.28
2018-07-23T00:15:28.478Z,100011.44
2018-07-23T00:20:32.734Z,100016.86
2018-07-23T00:25:37.039Z,100020.08
2018-07-23T00:30:41.332Z,100018.07
2018-07-23T00:35:45.724Z,100023.65
2018-07-23T00:40:49.850Z,100022.80
2018-07-23T00:45:53.887Z,100020.73
2018-07-23T00:50:58.025Z,100027.52
2018-07-23T00:56:02.080Z,100024.31
2018-07-23T01:01:06.365Z,100028.38
2018-07-23T01:06:10.309Z,100034.66
2018-07-23T01:11:14.599Z,100042.30
2018-07-23T01:16:18.552Z,100042.45
2018-07-23T01:21:22.568Z,100042.30
2018-07-23T01:26:27.072Z,100047.14
2018-07-23T01:31:31.752Z,100054.27
2018-07-23T01:36:35.874Z,100054.66
2018-07-23T01:41:40.266Z,100053.07
2018-07-23T01:46:44.091Z,100059.50
2018-07-23T01:51:48.090Z,100066.98
2018-07-23T01:56:51.909Z,100070.70
2018-07-23T02:01:57.607Z,100068.84
2018-07-23T02:07:01.649Z,100062.06
2018-07-23T02:12:06.411Z,100060.86
2018-07-23T02:17:10.948Z,100068.14
2018-07-23T02:22:15.471Z,100063.34
2018-07-23T02:27:19.688Z,100063.22
2018-07-23T02:32:23.424Z,100067.29
2018-07-23T02:37:27.268Z,100070.13
2018-07-23T02:42:31.311Z,100068.65
2018-07-23T02:47:35.055Z,100072.14
2018-07-23T02:52:38.967Z,100066.86
2018-07-23T02:57:42.816Z,100067.78
2018-07-23T03:02:46.808Z,100074.98
2018-07-23T03:07:50.732Z,100075.55
2018-07-23T03:12:55.429Z,100083.17
2018-07-23T03:17:59.328Z,100082.79
2018-07-23T03:23:03.348Z,100090.62
2018-07-23T03:28:07.340Z,100096.09
2018-07-23T03:33:11.314Z,100101.70
2018-07-23T03:38:15.149Z,100103.72
2018-07-23T03:43:19.070Z,100119.41
2018-07-23T03:48:22.838Z,100109.41
2018-07-23T03:53:26.617Z,100120.96
2018-07-23T03:58:30.295Z,100127.12
2018-07-23T04:03:33.903Z,100124.00
2018-07-23T04:08:38.017Z,100124.45
2018-07-23T04:13:41.863Z,100129.23
2018-07-23T04:18:45.623Z,100126.08
2018-07-23T04:23:49.568Z,100128.03
2018-07-23T04:28:53.370Z,100129.67
2018-07-23T04:33:57.105Z,100140.70
2018-07-23T04:39:00.993Z,100135.53
2018-07-23T04:44:04.756Z,100135.57
2018-07-23T04:49:08.634Z,100136.70
2018-07-23T04:54:12.463Z,100141.42
2018-07-23T04:59:16.982Z,100147.64
2018-07-23T05:04:20.723Z,100157.84
2018-07-23T05:09:24.650Z,100162.59
2018-07-23T05:14:28.540Z,100171.20
2018-07-23T05:19:32.734Z,100180.55
2018-07-23T05:24:36.614Z,100174.94
2018-07-23T05:29:40.409Z,100176.53
2018-07-23T05:34:44.234Z,100172.30
2018-07-23T05:39:48.075Z,100174.88
2018-07-23T05:44:51.842Z,100172.45
2018-07-23T05:49:55.644Z,100175.67
2018-07-23T05:54:59.415Z,100181.30
2018-07-23T06:00:06.469Z,100185.13
2018-07-23T06:05:10.262Z,100186.73
2018-07-23T06:19:48.062Z,100198.67
2018-07-23T06:24:51.745Z,100189.71
2018-07-23T06:29:55.460Z,100203.72
2018-07-23T06:34:59.150Z,100196.75
2018-07-23T06:40:06.979Z,100200.45
2018-07-23T06:45:10.707Z,100198.05
2018-07-23T06:50:14.411Z,100202.86
2018-07-23T06:55:18.180Z,100207.38
2018-07-23T07:00:21.942Z,100209.13
2018-07-23T07:05:26.607Z,100213.70
2018-07-23T07:10:30.433Z,100216.16
2018-07-23T07:15:34.260Z,100215.17
2018-07-23T07:20:38.922Z,100221.92
2018-07-23T07:25:43.087Z,100217.59
2018-07-23T07:30:46.817Z,100213.80
2018-07-23T07:35:50.494Z,100213.38
2018-07-23T07:41:00.786Z,100219.53
2018-07-23T07:46:05.638Z,100217.17
2018-07-23T07:51:09.409Z,100220.27
2018-07-23T07:56:13.131Z,100215.83
2018-07-23T08:01:16.887Z,100224.29
2018-07-23T08:06:20.570Z,100224.91
2018-07-23T08:11:24.274Z,100232.65
2018-07-23T08:16:27.975Z,100227.32
2018-07-23T08:21:31.713Z,100227.44
2018-07-23T08:26:35.345Z,100227.66
2018-07-23T08:31:39.131Z,100227.78
2018-07-23T08:36:42.831Z,100219.28
2018-07-23T08:41:46.600Z,100217.28
2018-07-23T08:46:50.361Z,100212.48
2018-07-23T08:51:54.147Z,100219.72
2018-07-23T08:56:57.783Z,100223.26
2018-07-23T09:02:01.438Z,100222.52
2018-07-23T09:07:05.183Z,100221.02
2018-07-23T09:12:09.466Z,100218.17
2018-07-23T09:17:13.236Z,100219.78
2018-07-23T09:22:16.889Z,100225.95
2018-07-23T09:27:20.526Z,100222.48
2018-07-23T09:32:24.190Z,100230.34
2018-07-23T09:37:28.158Z,100223.42
2018-07-23T09:42:32.002Z,100229.95
2018-07-23T09:47:35.786Z,100216.77
2018-07-23T09:52:39.531Z,100216.52
2018-07-23T09:57:43.273Z,100204.68
2018-07-23T10:02:46.974Z,100199.37
2018-07-23T10:07:50.652Z,100184.36
2018-07-23T10:12:54.462Z,100204.86
2018-07-23T10:17:58.122Z,100205.11
2018-07-23T10:23:01.778Z,100200.05
2018-07-23T10:28:05.747Z,100202.11
2018-07-23T10:33:09.415Z,100196.08
2018-07-23T10:38:13.459Z,100190.02
2018-07-23T10:43:17.185Z,100188.52
2018-07-23T10:48:20.847Z,100190.48
2018-07-23T10:53:24.922Z,100190.34
2018-07-23T10:58:30.305Z,100180.74
2018-07-23T11:03:34.075Z,100186.02
2018-07-23T11:08:37.758Z,100187.73
2018-07-23T11:13:41.511Z,100177.84
2018-07-23T11:18:45.223Z,100176.63
2018-07-23T11:23:48.950Z,100174.28
2018-07-23T11:28:52.651Z,100173.28
2018-07-23T11:33:56.424Z,100171.52
2018-07-23T11:39:00.142Z,100168.81
2018-07-23T11:44:04.157Z,100176.94
2018-07-23T11:49:07.944Z,100169.02
2018-07-23T11:54:11.878Z,100164.81
2018-07-23T11:59:15.503Z,100167.91
2018-07-23T12:04:19.227Z,100164.30
2018-07-23T12:09:22.813Z,100167.86
2018-07-23T12:14:26.435Z,100157.87
2018-07-23T12:19:30.229Z,100154.92
2018-07-23T12:24:33.918Z,100150.84
2018-07-23T12:29:37.564Z,100145.91
2018-07-23T12:34:42.212Z,100142.81
2018-07-23T12:39:45.999Z,100132.30
2018-07-23T12:44:49.717Z,100130.19
2018-07-23T12:49:53.415Z,100136.11
2018-07-23T12:54:57.166Z,100132.66
2018-07-23T13:00:02.105Z,100131.04
2018-07-23T13:05:07.209Z,100128.98
2018-07-23T13:10:10.869Z,100123.26
2018-07-23T13:15:14.613Z,100123.05
2018-07-23T13:20:18.339Z,100116.86
2018-07-23T13:25:22.037Z,100116.09
2018-07-23T13:30:25.830Z,100122.55
2018-07-23T13:35:29.599Z,100114.71
2018-07-23T13:40:33.268Z,100113.00
2018-07-23T13:45:37.017Z,100105.43
2018-07-23T13:50:40.782Z,100102.09
2018-07-23T13:55:44.482Z,100099.38
2018-07-23T14:00:48.297Z,100107.17
2018-07-23T14:05:51.974Z,100094.08
2018-07-23T14:10:55.758Z,100081.05
2018-07-23T14:15:59.418Z,100086.77
2018-07-23T14:21:03.091Z,100092.39
2018-07-23T14:26:06.807Z,100076.62
2018-07-23T14:31:10.507Z,100074.50
2018-07-23T14:36:14.645Z,100077.06
2018-07-23T14:41:18.514Z,100073.50
2018-07-23T14:46:22.547Z,100080.21
2018-07-23T14:51:26.303Z,100072.58
2018-07-23T14:56:30.333Z,100062.93
2018-07-23T15:01:34.503Z,100062.20
2018-07-23T15:06:38.234Z,100059.42
2018-07-23T15:11:41.977Z,100053.57
2018-07-23T15:16:45.601Z,100045.39
2018-07-23T15:21:49.359Z,100049.85
2018-07-23T15:26:53.183Z,100051.59
2018-07-23T15:31:56.954Z,100043.20
2018-07-23T15:37:00.718Z,100043.05
2018-07-23T15:42:04.475Z,100041.96
2018-07-23T15:47:08.667Z,100039.92
2018-07-23T15:52:12.516Z,100035.92
2018-07-23T15:57:16.186Z,100036.23
2018-07-23T16:02:19.810Z,100033.97
2018-07-23T16:07:23.561Z,100038.80
2018-07-23T16:12:27.226Z,100047.11
2018-07-23T16:17:30.916Z,100038.20
2018-07-23T16:22:34.812Z,100043.38
2018-07-23T16:27:38.628Z,100039.69
2018-07-23T16:32:42.493Z,100035.20
2018-07-23T16:37:46.311Z,100036.78
2018-07-23T16:42:50.010Z,100043.45
2018-07-23T16:47:53.864Z,100037.86
2018-07-23T16:52:57.611Z,100039.22
2018-07-23T16:58:01.482Z,100043.38
2018-07-23T17:03:05.146Z,100041.48
2018-07-23T17:08:08.942Z,100048.49
2018-07-23T17:13:12.861Z,100051.16
2018-07-23T17:18:16.730Z,100047.94
2018-07-23T17:23:20.575Z,100050.14
2018-07-23T17:28:24.301Z,100046.47
2018-07-23T17:33:28.004Z,100053.00
2018-07-23T17:38:31.711Z,100054.52
2018-07-23T17:43:39.986Z,100059.95
2018-07-23T17:48:43.713Z,100059.61
2018-07-23T17:53:47.533Z,100060.87
2018-07-23T17:58:51.987Z,100063.02
2018-07-23T18:03:56.128Z,100061.83
2018-07-23T18:09:01.249Z,100060.81
2018-07-23T18:14:05.346Z,100064.20
2018-07-23T18:19:09.089Z,100061.66
2018-07-23T18:24:12.757Z,100067.25
2018-07-23T18:29:16.582Z,100070.16
2018-07-23T18:34:20.246Z,100078.08
2018-07-23T18:39:23.882Z,100089.27
2018-07-23T18:44:27.569Z,100085.44
2018-07-23T18:49:43.515Z,100084.94
2018-07-23T18:54:48.583Z,100097.61
2018-07-23T18:59:52.302Z,100105.16
2018-07-23T19:04:56.054Z,100118.16
2018-07-23T19:09:59.771Z,100120.55
2018-07-23T19:15:05.775Z,100127.25
2018-07-23T19:20:09.474Z,100132.28
2018-07-23T19:25:13.184Z,100137.77
2018-07-23T19:30:16.920Z,100138.81
2018-07-23T19:35:20.644Z,100142.73
2018-07-23T19:40:24.595Z,100152.48
2018-07-23T19:45:28.300Z,100153.53
2018-07-23T19:50:31.993Z,100158.55
2018-07-23T19:55:35.687Z,100162.70
2018-07-23T20:00:39.389Z,100168.71
2018-07-23T20:05:43.065Z,100163.76
2018-07-23T20:10:46.759Z,100166.78
2018-07-23T20:15:50.448Z,100164.50
2018-07-23T20:20:54.193Z,100171.95
2018-07-23T20:25:57.849Z,100176.30
2018-07-23T20:31:01.506Z,100172.02
2018-07-23T20:36:05.652Z,100172.08
2018-07-23T20:41:09.361Z,100167.10
2018-07-23T20:46:12.994Z,100166.23
2018-07-23T20:51:16.722Z,100162.16
2018-07-23T20:56:20.527Z,100162.87
2018-07-23T21:01:24.339Z,100174.05
2018-07-23T21:06:28.491Z,100183.46
2018-07-23T21:11:32.425Z,100178.24
2018-07-23T21:16:36.255Z,100184.44
2018-07-23T21:21:39.931Z,100188.41
2018-07-23T21:26:43.603Z,100191.19
2018-07-23T21:31:47.318Z,100193.39
2018-07-23T21:36:51.541Z,100197.17
2018-07-23T21:41:55.279Z,100203.59
2018-07-23T21:46:59.577Z,100205.15
2018-07-23T21:52:03.681Z,100206.00
2018-07-23T21:57:07.892Z,100211.78
2018-07-23T22:02:11.878Z,100207.22
2018-07-23T22:07:15.590Z,100201.73
2018-07-23T22:12:19.273Z,100220.22
2018-07-23T22:17:22.999Z,100216.45
2018-07-23T22:22:26.734Z,100213.79
2018-07-23T22:27:30.454Z,100210.08
2018-07-23T22:32:34.110Z,100213.64
2018-07-23T22:37:37.723Z,100213.83
2018-07-23T22:42:41.398Z,100212.02
2018-07-23T22:47:45.065Z,100211.48
2018-07-23T22:52:48.860Z,100213.77
2018-07-23T22:57:52.534Z,100218.22
2018-07-23T23:02:56.207Z,100215.77
2018-07-23T23:07:59.996Z,100222.44
2018-07-23T23:13:03.707Z,100225.03
2018-07-23T23:18:07.479Z,100226.95
2018-07-23T23:23:11.329Z,100228.70
2018-07-23T23:28:15.044Z,100224.53
2018-07-23T23:33:18.746Z,100220.30
2018-07-23T23:38:22.351Z,100212.05
2018-07-23T23:43:26.083Z,100212.84
2018-07-23T23:48:29.826Z,100209.52
2018-07-23T23:53:33.470Z,100207.34
2018-07-23T23:58:37.218Z,100204.91
